Time;durP1;ratioP1;P1;durP2;ratioP2;P2;SDS_P1;SDS_P2;PMS_P1;PMS_P2;Temp;Humidity;BMP_temperature;BMP_pressure;BME280_temperature;BME280_humidity;BME280_pressure;Samples;Min_cycle;Max_cycle;Signal;HPM_P1;HPM_P2
2022/11/08 00:03:27;;;;;;;10.95;4.90;;;8.90;97.50;;;;;;5066075;28;20378;-51
2022/11/08 00:14:06;;;;;;;15.70;5.60;;;8.80;99.90;;;;;;5066849;28;20370;-56
2022/11/08 00:16:31;;;;;;;10.80;5.10;;;8.90;99.90;;;;;;5068979;28;20392;-51
2022/11/08 00:18:57;;;;;;;13.97;5.70;;;8.90;99.90;;;;;;5069192;28;20380;-50
2022/11/08 00:21:23;;;;;;;11.55;5.97;;;8.90;99.90;;;;;;5065502;28;20885;-50
2022/11/08 00:23:48;;;;;;;12.83;5.57;;;9.00;99.90;;;;;;5069329;28;20438;-51
2022/11/08 00:26:14;;;;;;;11.60;5.55;;;8.90;99.90;;;;;;5068203;28;20380;-50
2022/11/08 00:28:39;;;;;;;14.60;5.20;;;8.90;99.90;;;;;;5068878;28;20532;-50
2022/11/08 00:31:05;;;;;;;10.20;4.90;;;8.80;99.90;;;;;;5068900;28;20469;-55
2022/11/08 00:33:31;;;;;;;13.10;5.60;;;8.80;99.90;;;;;;5068481;28;20896;-50
2022/11/08 00:36:01;;;;;;;12.07;5.38;;;8.80;99.90;;;;;;5068638;28;20392;-51
2022/11/08 00:38:26;;;;;;;12.85;5.60;;;8.80;99.90;;;;;;5066113;28;20854;-51
2022/11/08 00:40:52;;;;;;;11.02;5.20;;;8.80;99.90;;;;;;5068780;28;20404;-51
2022/11/08 00:43:17;;;;;;;12.60;5.40;;;8.80;99.90;;;;;;5067806;28;20400;-51
2022/11/08 00:45:43;;;;;;;10.77;5.23;;;8.80;99.90;;;;;;5068672;28;20372;-51
2022/11/08 00:48:09;;;;;;;14.43;6.10;;;8.80;99.90;;;;;;5068097;28;20710;-52
2022/11/08 00:50:37;;;;;;;9.93;5.20;;;8.90;99.90;;;;;;5068779;28;20387;-51
2022/11/08 00:53:03;;;;;;;10.50;5.10;;;10.10;99.90;;;;;;5069109;28;20394;-51
2022/11/08 00:55:29;;;;;;;11.83;5.80;;;8.90;99.90;;;;;;5071917;28;20392;-50
2022/11/08 00:57:54;;;;;;;13.32;5.90;;;8.90;99.90;;;;;;5072584;28;20375;-51
2022/11/08 01:00:20;;;;;;;11.50;5.65;;;9.00;99.90;;;;;;5072043;28;20445;-51
2022/11/08 01:02:45;;;;;;;13.00;6.00;;;8.80;99.90;;;;;;5072755;28;20480;-51
2022/11/08 01:05:11;;;;;;;8.80;4.57;;;8.70;99.90;;;;;;5071750;28;20392;-52
2022/11/08 01:07:37;;;;;;;12.20;5.20;;;8.60;99.90;;;;;;5054457;28;20439;-52
2022/11/08 01:10:04;;;;;;;10.70;4.75;;;8.60;99.90;;;;;;5069689;28;20375;-48
2022/11/08 01:12:30;;;;;;;9.70;4.50;;;8.50;99.90;;;;;;5071830;28;20383;-51
2022/11/08 01:14:55;;;;;;;9.97;4.30;;;8.60;99.90;;;;;;5072390;28;20467;-51
2022/11/08 01:17:21;;;;;;;12.30;4.85;;;8.60;99.90;;;;;;5071319;28;20760;-51
2022/11/08 01:19:47;;;;;;;11.50;5.40;;;8.70;99.90;;;;;;5071976;28;20449;-51
2022/11/08 01:22:12;;;;;;;9.20;4.60;;;8.70;99.90;;;;;;5071432;28;20893;-51
2022/11/08 01:24:38;;;;;;;12.77;5.53;;;8.80;99.90;;;;;;5071855;28;20434;-51
2022/11/08 01:27:03;;;;;;;10.95;4.72;;;8.80;99.90;;;;;;5071975;28;20780;-51
2022/11/08 01:29:29;;;;;;;13.07;5.30;;;8.70;99.90;;;;;;5071139;28;20384;-51
2022/11/08 01:31:54;;;;;;;13.13;5.50;;;8.60;99.90;;;;;;5071958;28;20399;-51
2022/11/08 01:34:20;;;;;;;12.18;6.15;;;9.30;99.90;;;;;;5070838;28;20380;-51
2022/11/08 01:36:45;;;;;;;13.23;5.80;;;8.60;99.90;;;;;;5071914;28;20932;-48
2022/11/08 01:39:11;;;;;;;11.67;5.77;;;8.50;1.00;;;;;;5071255;28;20371;-48
2022/11/08 01:41:38;;;;;;;13.63;6.20;;;8.40;1.00;;;;;;5053974;28;20458;-48
2022/11/08 01:44:03;;;;;;;12.07;5.57;;;8.40;1.00;;;;;;5071714;28;20388;-48
2022/11/08 01:46:40;;;;;;;12.90;5.63;;;8.40;1.00;;;;;;5070906;28;20386;-48
2022/11/08 01:49:18;;;;;;;11.73;6.30;;;9.00;1.00;;;;;;5068906;28;20876;-52
2022/11/08 01:51:47;;;;;;;12.63;6.00;;;8.30;1.00;;;;;;5069054;28;20864;-51
2022/11/08 01:54:20;;;;;;;11.75;5.20;;;8.30;1.00;;;;;;5070873;28;20418;-48
2022/11/08 01:56:46;;;;;;;14.57;6.20;;;8.40;1.00;;;;;;5071413;28;20422;-51
2022/11/08 01:59:14;;;;;;;13.05;6.15;;;8.50;1.00;;;;;;5070478;28;20380;-51
2022/11/08 02:01:40;;;;;;;14.82;6.78;;;8.40;1.00;;;;;;5071127;28;20420;-51
2022/11/08 02:04:06;;;;;;;13.13;6.32;;;8.40;99.90;;;;;;5069825;28;20822;-55
2022/11/08 02:06:36;;;;;;;13.77;6.73;;;8.40;99.90;;;;;;5070595;28;20388;-51
2022/11/08 02:09:06;;;;;;;12.93;6.80;;;8.30;99.90;;;;;;5071502;28;20384;-51
2022/11/08 02:11:33;;;;;;;13.95;7.03;;;8.30;99.90;;;;;;5071003;28;20392;-50
2022/11/08 02:13:59;;;;;;;15.40;6.70;;;8.20;99.90;;;;;;5071040;28;20470;-51
2022/11/08 02:16:25;;;;;;;15.65;7.28;;;8.20;99.90;;;;;;5070080;28;21159;-50
2022/11/08 02:18:51;;;;;;;15.50;7.60;;;8.10;1.00;;;;;;5071062;28;20471;-48
2022/11/08 02:21:36;;;;;;;13.57;7.78;;;8.00;1.00;;;;;;5069776;28;20900;-48
2022/11/08 02:24:10;;;;;;;15.55;7.13;;;8.10;1.00;;;;;;5070872;28;20400;-48
2022/11/08 02:26:37;;;;;;;14.15;7.15;;;8.00;99.90;;;;;;5070717;28;20380;-48
2022/11/08 02:29:27;;;;;;;17.63;7.13;;;7.80;99.90;;;;;;5070791;28;20372;-48
2022/11/08 02:31:54;;;;;;;15.40;7.38;;;7.90;1.00;;;;;;5068986;28;20395;-48
2022/11/08 02:34:24;;;;;;;14.82;7.40;;;7.80;1.00;;;;;;5069766;28;20698;-48
2022/11/08 02:36:50;;;;;;;16.83;7.80;;;7.80;1.00;;;;;;5070475;28;20387;-49
2022/11/08 02:39:15;;;;;;;14.02;7.35;;;7.80;1.00;;;;;;5069708;28;20372;-49
2022/11/08 02:41:41;;;;;;;16.93;7.43;;;7.70;1.00;;;;;;5070361;28;20414;-49
2022/11/08 02:44:06;;;;;;;12.75;6.82;;;7.90;1.00;;;;;;5070283;28;20636;-53
2022/11/08 02:46:32;;;;;;;16.33;7.40;;;7.70;1.00;;;;;;5070054;28;20387;-48
2022/11/08 02:48:58;;;;;;;14.40;7.30;;;7.70;99.90;;;;;;5069992;28;20387;-48
2022/11/08 02:51:23;;;;;;;13.95;6.43;;;8.00;1.00;;;;;;5066632;28;20507;-49
2022/11/08 02:53:49;;;;;;;13.67;7.40;;;8.70;1.00;;;;;;5070363;28;20383;-48
2022/11/08 02:56:14;;;;;;;13.90;6.93;;;8.80;1.00;;;;;;5069124;28;20384;-48
2022/11/08 02:58:40;;;;;;;17.07;7.50;;;7.50;99.90;;;;;;5069947;28;20398;-48
2022/11/08 03:01:05;;;;;;;14.27;7.50;;;7.40;99.90;;;;;;5070292;28;20410;-53
2022/11/08 03:03:31;;;;;;;15.18;6.60;;;7.40;99.90;;;;;;5069155;28;20488;-48
2022/11/08 03:05:57;;;;;;;15.17;7.00;;;7.30;1.00;;;;;;5070048;28;20392;-48
2022/11/08 03:08:22;;;;;;;14.73;7.13;;;7.30;1.00;;;;;;5068701;28;20376;-48
2022/11/08 03:10:48;;;;;;;13.40;7.27;;;7.20;1.00;;;;;;5069612;28;20412;-48
2022/11/08 03:13:13;;;;;;;15.38;7.80;;;7.30;1.00;;;;;;5069046;28;20388;-48
2022/11/08 03:15:39;;;;;;;12.20;7.33;;;7.30;1.00;;;;;;5069449;28;20376;-48
2022/11/08 03:18:05;;;;;;;12.27;6.40;;;9.20;1.00;;;;;;5069617;28;20384;-48
2022/11/08 03:20:31;;;;;;;13.40;7.40;;;8.10;1.00;;;;;;5068831;28;20411;-48
2022/11/08 03:23:01;;;;;;;14.97;7.37;;;8.30;1.00;;;;;;5069923;28;20398;-48
2022/11/08 03:25:26;;;;;;;15.05;6.97;;;7.40;1.00;;;;;;5066561;28;21003;-48
2022/11/08 03:27:52;;;;;;;12.93;6.32;;;8.30;1.00;;;;;;5069540;28;20380;-48
2022/11/08 03:30:18;;;;;;;14.53;7.10;;;7.50;1.00;;;;;;5068932;28;20376;-48
2022/11/08 03:32:45;;;;;;;11.90;6.50;;;7.50;1.00;;;;;;5066838;28;20881;-48
2022/11/08 03:35:11;;;;;;;16.08;6.70;;;7.50;1.00;;;;;;5068877;28;20394;-50
2022/11/08 03:37:37;;;;;;;14.48;6.30;;;7.50;1.00;;;;;;5069691;28;20888;-48
2022/11/08 03:40:03;;;;;;;13.87;7.10;;;8.90;1.00;;;;;;5069328;28;20379;-48
2022/11/08 03:42:28;;;;;;;11.93;6.50;;;7.40;1.00;;;;;;5068585;28;20427;-48
2022/11/08 03:44:54;;;;;;;12.95;6.78;;;7.40;1.00;;;;;;5069621;28;20865;-48
2022/11/08 03:47:19;;;;;;;16.63;7.30;;;7.70;1.00;;;;;;5068258;28;20375;-48
2022/11/08 03:49:45;;;;;;;13.10;6.50;;;7.50;1.00;;;;;;5069140;28;20564;-48
2022/11/08 03:52:11;;;;;;;14.35;7.20;;;7.50;1.00;;;;;;5068999;28;20485;-53
2022/11/08 03:54:37;;;;;;;15.13;7.00;;;8.90;1.00;;;;;;5069459;28;20403;-48
2022/11/08 03:57:02;;;;;;;15.83;7.00;;;7.50;1.00;;;;;;5068890;28;20877;-48
2022/11/08 03:59:28;;;;;;;13.73;6.90;;;7.50;1.00;;;;;;5068601;28;20376;-48
2022/11/08 04:01:54;;;;;;;15.20;6.93;;;7.70;1.00;;;;;;5068667;28;20749;-48
2022/11/08 04:04:19;;;;;;;11.60;6.20;;;7.40;1.00;;;;;;5068267;28;20391;-49
2022/11/08 04:06:45;;;;;;;14.50;7.00;;;7.30;1.00;;;;;;5069091;28;20375;-48
2022/11/08 04:09:11;;;;;;;14.00;6.00;;;7.20;1.00;;;;;;5068477;28;20413;-53
2022/11/08 04:17:05;;;;;;;11.77;6.25;;;8.10;1.00;;;;;;5066391;28;20367;-48
2022/11/08 04:22:15;;;;;;;12.60;6.17;;;6.80;1.00;;;;;;5066789;28;20811;-48
2022/11/08 04:24:40;;;;;;;11.23;5.90;;;6.90;1.00;;;;;;5068780;28;20437;-48
2022/11/08 04:27:06;;;;;;;14.35;5.40;;;6.80;1.00;;;;;;5070351;28;20422;-48
2022/11/08 04:29:32;;;;;;;12.30;6.00;;;7.20;1.00;;;;;;5072210;28;20371;-48
2022/11/08 04:31:57;;;;;;;14.70;5.85;;;6.90;1.00;;;;;;5072523;28;20880;-48
2022/11/08 04:34:23;;;;;;;10.90;4.97;;;8.50;1.00;;;;;;5072125;28;20372;-49
2022/11/08 04:36:48;;;;;;;10.85;5.43;;;7.10;1.00;;;;;;5072894;28;20500;-48
2022/11/08 04:39:14;;;;;;;10.50;5.53;;;7.20;1.00;;;;;;5072099;28;20379;-48
2022/11/08 04:41:39;;;;;;;12.13;6.27;;;7.20;1.00;;;;;;5072684;28;20414;-48
2022/11/08 04:44:05;;;;;;;17.93;5.90;;;7.30;1.00;;;;;;5072553;28;20395;-48
2022/11/08 04:46:31;;;;;;;12.60;6.07;;;7.30;1.00;;;;;;5071807;28;21010;-48
2022/11/08 04:48:58;;;;;;;10.85;5.45;;;7.20;1.00;;;;;;5072731;28;20376;-48
2022/11/08 04:51:30;;;;;;;10.30;5.47;;;7.20;1.00;;;;;;5068968;28;20384;-48
2022/11/08 04:53:57;;;;;;;13.40;6.32;;;7.20;1.00;;;;;;5072275;28;20753;-48
2022/11/08 04:56:24;;;;;;;11.75;6.10;;;7.10;1.00;;;;;;5071664;28;20388;-48
2022/11/08 04:58:58;;;;;;;13.93;6.30;;;7.10;1.00;;;;;;5072460;28;20388;-48
2022/11/08 05:01:29;;;;;;;11.65;5.00;;;7.10;1.00;;;;;;5071310;28;20405;-48
2022/11/08 05:03:55;;;;;;;15.82;6.28;;;7.10;1.00;;;;;;5072189;28;20778;-48
2022/11/08 05:06:25;;;;;;;14.45;5.68;;;7.20;1.00;;;;;;5071274;28;20500;-48
2022/11/08 05:08:53;;;;;;;12.40;5.90;;;7.20;1.00;;;;;;5072480;28;20737;-48
2022/11/08 05:11:21;;;;;;;13.43;5.80;;;7.20;1.00;;;;;;5071985;28;20384;-48
2022/11/08 05:13:48;;;;;;;14.90;6.15;;;7.20;1.00;;;;;;5072263;28;20384;-48
2022/11/08 05:16:28;;;;;;;13.80;6.75;;;7.10;1.00;;;;;;5059652;28;20388;-48
2022/11/08 05:18:54;;;;;;;13.10;5.72;;;7.10;1.00;;;;;;5064972;28;20424;-48
2022/11/08 05:24:07;;;;;;;10.35;5.10;;;7.00;1.00;;;;;;5068905;28;20421;-48
2022/11/08 05:26:38;;;;;;;14.38;5.55;;;6.90;1.00;;;;;;5069842;28;20364;-51
2022/11/08 05:29:04;;;;;;;11.98;5.75;;;6.90;1.00;;;;;;5074131;28;20469;-48
2022/11/08 05:31:30;;;;;;;11.48;6.00;;;6.80;1.00;;;;;;5091408;28;20397;-47
2022/11/08 05:33:55;;;;;;;11.55;6.10;;;6.90;1.00;;;;;;5057085;28;20422;-48
2022/11/08 05:36:22;;;;;;;14.27;6.70;;;6.90;1.00;;;;;;5078298;28;20431;-48
2022/11/08 05:38:47;;;;;;;15.33;6.60;;;6.90;1.00;;;;;;5082086;28;20384;-48
2022/11/08 05:41:18;;;;;;;11.88;6.25;;;6.80;1.00;;;;;;5084494;28;20448;-53
2022/11/08 05:43:46;;;;;;;12.43;6.32;;;6.80;1.00;;;;;;5074977;28;20387;-48
2022/11/08 05:46:13;;;;;;;15.30;7.38;;;9.00;1.00;;;;;;5085044;28;20453;-53
2022/11/08 05:48:40;;;;;;;13.23;6.30;;;7.00;1.00;;;;;;5073600;28;20451;-48
2022/11/08 05:51:06;;;;;;;14.60;6.47;;;7.00;1.00;;;;;;5063121;28;20407;-48
2022/11/08 05:53:31;;;;;;;15.45;6.72;;;7.10;1.00;;;;;;5074662;28;20506;-49
2022/11/08 05:55:58;;;;;;;13.07;5.80;;;7.10;1.00;;;;;;5074298;28;20736;-48
2022/11/08 05:58:29;;;;;;;14.82;6.70;;;7.10;1.00;;;;;;5081208;28;20430;-48
2022/11/08 06:01:01;;;;;;;10.82;6.20;;;7.50;1.00;;;;;;5076911;28;21254;-48
2022/11/08 06:03:27;;;;;;;16.23;6.90;;;7.10;1.00;;;;;;5087204;28;20431;-48
2022/11/08 06:05:52;;;;;;;12.93;6.87;;;7.90;1.00;;;;;;5076627;28;20417;-48
2022/11/08 06:08:18;;;;;;;10.95;6.40;;;8.90;1.00;;;;;;5081689;28;20960;-48
2022/11/08 06:10:43;;;;;;;18.37;7.50;;;7.10;1.00;;;;;;5083534;28;20385;-48
2022/11/08 06:13:09;;;;;;;14.60;6.70;;;7.10;1.00;;;;;;5075557;28;20471;-48
2022/11/08 06:15:34;;;;;;;16.93;6.60;;;8.70;1.00;;;;;;5082805;28;21331;-49
2022/11/08 06:18:02;;;;;;;12.30;6.20;;;7.00;1.00;;;;;;5079272;28;20378;-50
2022/11/08 06:20:27;;;;;;;12.38;6.03;;;7.00;1.00;;;;;;5073312;28;20393;-48
2022/11/08 06:22:54;;;;;;;14.57;6.70;;;8.60;1.00;;;;;;5072310;28;20396;-49
2022/11/08 06:25:20;;;;;;;13.55;5.50;;;6.90;1.00;;;;;;5070577;28;20502;-48
2022/11/08 06:27:46;;;;;;;15.23;5.97;;;6.90;1.00;;;;;;5070982;28;20384;-49
2022/11/08 06:30:12;;;;;;;15.40;5.77;;;6.90;1.00;;;;;;5070436;28;20375;-52
2022/11/08 06:32:37;;;;;;;13.05;5.70;;;6.90;1.00;;;;;;5069245;28;20396;-49
2022/11/08 06:35:03;;;;;;;10.73;5.20;;;6.90;1.00;;;;;;5070749;28;20753;-48
2022/11/08 06:37:29;;;;;;;11.95;4.80;;;7.00;1.00;;;;;;5069481;28;20404;-48
2022/11/08 06:39:54;;;;;;;10.60;5.50;;;8.30;1.00;;;;;;5068827;28;20932;-49
2022/11/08 06:42:20;;;;;;;11.43;5.35;;;7.10;1.00;;;;;;5069905;28;20500;-48
2022/11/08 06:44:46;;;;;;;10.90;5.10;;;8.20;1.00;;;;;;5071012;28;20382;-48
2022/11/08 06:47:11;;;;;;;11.93;5.72;;;9.10;1.00;;;;;;5070934;28;20849;-55
2022/11/08 06:49:37;;;;;;;13.67;6.30;;;8.40;1.00;;;;;;5069932;28;20413;-49
2022/11/08 06:52:03;;;;;;;12.23;5.70;;;8.10;1.00;;;;;;5070347;28;20744;-49
2022/11/08 06:54:28;;;;;;;13.50;6.63;;;7.50;1.00;;;;;;5069803;28;20390;-49
2022/11/08 06:56:59;;;;;;;12.68;5.90;;;7.50;1.00;;;;;;5071115;28;20372;-49
2022/11/08 06:59:26;;;;;;;10.95;5.20;;;7.60;1.00;;;;;;5069812;28;20475;-49
2022/11/08 07:01:52;;;;;;;11.43;5.53;;;7.60;1.00;;;;;;5070087;28;20431;-49
2022/11/08 07:04:18;;;;;;;12.27;5.68;;;7.70;1.00;;;;;;5064101;28;20408;-51
2022/11/08 07:06:43;;;;;;;10.45;5.10;;;7.90;1.00;;;;;;5067653;28;20445;-49
2022/11/08 07:09:09;;;;;;;10.40;5.03;;;8.10;1.00;;;;;;5070084;28;20813;-49
2022/11/08 07:11:35;;;;;;;11.60;6.13;;;8.20;1.00;;;;;;5069571;28;20475;-49
2022/11/08 07:14:00;;;;;;;12.80;5.60;;;8.40;99.90;;;;;;5070467;28;20384;-51
2022/11/08 07:16:26;;;;;;;11.98;5.60;;;8.50;99.90;;;;;;5069367;28;20383;-49
2022/11/08 07:18:51;;;;;;;11.30;4.90;;;8.70;99.90;;;;;;5070161;28;20426;-51
2022/11/08 07:21:17;;;;;;;10.40;5.10;;;9.40;99.90;;;;;;5069009;28;20403;-48
2022/11/08 07:23:43;;;;;;;11.50;4.30;;;8.90;99.90;;;;;;5052082;28;20395;-51
2022/11/08 07:26:10;;;;;;;10.63;4.50;;;9.00;17.20;;;;;;5070105;28;20380;-51
2022/11/08 07:28:35;;;;;;;10.23;4.35;;;9.10;1.00;;;;;;5069242;28;21305;-51
2022/11/08 07:31:03;;;;;;;14.65;4.95;;;9.30;99.90;;;;;;5069814;28;20475;-51
2022/11/08 07:33:29;;;;;;;12.50;4.80;;;9.60;99.90;;;;;;5069210;28;20465;-52
2022/11/08 07:35:55;;;;;;;9.90;5.28;;;10.00;1.00;;;;;;5069673;28;20380;-51
2022/11/08 07:38:21;;;;;;;11.32;4.90;;;10.40;1.00;;;;;;5067860;28;20433;-49
2022/11/08 07:40:47;;;;;;;12.00;5.05;;;11.00;1.00;;;;;;5069860;28;20482;-49
2022/11/08 07:43:13;;;;;;;12.67;4.80;;;11.80;99.90;;;;;;5069688;28;20560;-54
2022/11/08 07:45:40;;;;;;;9.15;4.70;;;12.30;99.90;;;;;;5069360;28;20380;-49
2022/11/08 07:48:07;;;;;;;10.05;4.50;;;12.80;99.90;;;;;;5069690;28;20372;-49
2022/11/08 07:50:33;;;;;;;11.95;5.25;;;12.70;99.90;;;;;;5068464;28;21094;-49
2022/11/08 07:52:59;;;;;;;12.85;5.88;;;13.10;99.90;;;;;;5069443;28;20407;-49
2022/11/08 07:55:25;;;;;;;10.30;4.85;;;14.10;1.00;;;;;;5068723;28;20392;-51
2022/11/08 07:57:55;;;;;;;12.52;4.85;;;14.70;1.00;;;;;;5069534;28;20407;-49
2022/11/08 08:00:21;;;;;;;10.07;5.10;;;14.10;1.00;;;;;;5068817;28;20482;-49
2022/11/08 08:02:46;;;;;;;10.70;4.57;;;13.70;1.00;;;;;;5068991;28;20388;-49
2022/11/08 08:05:12;;;;;;;11.57;4.97;;;14.30;1.00;;;;;;5069426;28;20925;-53
2022/11/08 08:07:37;;;;;;;9.93;4.10;;;15.40;1.00;;;;;;5068755;28;20376;-50
2022/11/08 08:10:03;;;;;;;10.30;4.00;;;16.20;1.00;;;;;;5069748;28;20772;-49
2022/11/08 08:12:29;;;;;;;9.70;4.10;;;16.90;1.00;;;;;;5068674;28;20875;-49
2022/11/08 08:14:54;;;;;;;11.18;4.00;;;17.80;1.00;;;;;;5069672;28;20400;-49
2022/11/08 08:17:20;;;;;;;10.07;4.20;;;19.30;99.90;;;;;;5068720;28;20462;-49
2022/11/08 08:19:45;;;;;;;8.38;3.38;;;19.50;99.90;;;;;;5069815;28;20379;-50
2022/11/08 08:22:11;;;;;;;10.03;3.93;;;19.70;99.90;;;;;;5069343;28;20419;-52
2022/11/08 08:24:37;;;;;;;8.70;3.53;;;20.30;99.90;;;;;;5068797;28;20847;-50
2022/11/08 08:27:02;;;;;;;9.80;4.03;;;20.10;99.90;;;;;;5069342;28;20383;-50
2022/11/08 08:29:28;;;;;;;8.70;4.10;;;20.10;99.90;;;;;;5068712;28;20387;-53
2022/11/08 08:31:54;;;;;;;8.88;4.20;;;20.70;99.90;;;;;;5069057;28;20383;-50
2022/11/08 08:34:20;;;;;;;10.68;5.15;;;21.20;99.90;;;;;;5068645;28;20864;-50
2022/11/08 08:36:45;;;;;;;9.60;5.80;;;21.60;99.90;;;;;;5069525;28;20413;-50
2022/11/08 08:39:11;;;;;;;10.60;6.50;;;22.00;99.90;;;;;;5069168;28;20784;-50
2022/11/08 08:41:36;;;;;;;9.90;6.30;;;21.60;99.90;;;;;;5068464;28;20403;-51
2022/11/08 08:44:02;;;;;;;10.00;6.00;;;21.30;99.90;;;;;;5069182;28;20380;-50
2022/11/08 08:46:28;;;;;;;9.65;5.88;;;21.10;99.90;;;;;;5068327;28;20918;-50
2022/11/08 08:48:53;;;;;;;9.65;6.00;;;20.40;99.90;;;;;;5069309;28;21123;-50
2022/11/08 08:51:19;;;;;;;10.37;5.33;;;19.80;99.90;;;;;;5068094;28;20426;-50
2022/11/08 08:53:44;;;;;;;9.83;4.40;;;19.50;99.90;;;;;;5069053;28;20374;-50
2022/11/08 08:56:10;;;;;;;9.37;4.63;;;18.60;99.90;;;;;;5069180;28;20808;-50
2022/11/08 08:58:36;;;;;;;9.80;4.60;;;17.90;99.90;;;;;;5068498;28;21006;-50
2022/11/08 09:01:04;;;;;;;10.50;4.75;;;17.30;99.90;;;;;;5069045;28;20399;-50
2022/11/08 09:03:30;;;;;;;9.30;4.20;;;17.20;99.90;;;;;;5068343;28;20441;-50
2022/11/08 09:05:57;;;;;;;10.77;4.32;;;17.50;99.90;;;;;;5069069;28;20428;-50
2022/11/08 09:08:23;;;;;;;11.00;4.53;;;17.20;99.90;;;;;;5068124;28;20422;-51
2022/11/08 09:10:57;;;;;;;9.90;4.15;;;16.70;99.90;;;;;;5067753;28;20788;-49
2022/11/08 09:13:27;;;;;;;10.63;4.40;;;17.50;99.90;;;;;;5070129;28;20403;-50
2022/11/08 09:15:54;;;;;;;10.18;4.70;;;18.80;99.90;;;;;;5072695;28;20375;-50
2022/11/08 09:18:20;;;;;;;12.30;4.70;;;20.00;99.90;;;;;;5071648;28;20392;-50
2022/11/08 09:20:46;;;;;;;9.77;4.73;;;20.70;99.90;;;;;;5072390;28;20827;-51
2022/11/08 09:23:13;;;;;;;11.05;4.65;;;21.20;99.90;;;;;;5072389;28;20488;-50
2022/11/08 09:25:39;;;;;;;8.52;4.40;;;21.80;99.90;;;;;;5071485;28;20475;-50
2022/11/08 09:28:05;;;;;;;12.50;4.60;;;21.50;99.90;;;;;;5072598;28;20842;-51
2022/11/08 09:30:31;;;;;;;10.00;3.80;;;21.20;99.90;;;;;;5071773;28;20409;-50
2022/11/08 09:32:57;;;;;;;7.05;3.97;;;21.40;99.90;;;;;;5072078;28;20419;-50
2022/11/08 09:35:23;;;;;;;10.68;4.75;;;22.00;99.90;;;;;;5071589;28;20790;-51
2022/11/08 09:37:48;;;;;;;7.70;4.55;;;22.30;99.90;;;;;;5072163;28;20380;-50
2022/11/08 09:40:39;;;;;;;6.60;4.50;;;22.10;99.90;;;;;;5071810;28;20710;-57
2022/11/08 09:43:23;;;;;;;7.93;4.40;;;22.10;99.90;;;;;;5071367;28;20884;-50
2022/11/08 09:45:52;;;;;;;6.45;3.50;;;21.70;99.90;;;;;;5072091;28;20384;-50
2022/11/08 09:48:30;;;;;;;9.40;3.50;;;20.60;99.90;;;;;;5071073;28;20396;-54
2022/11/08 09:51:00;;;;;;;8.02;2.20;;;19.90;99.90;;;;;;5072118;28;20436;-50
2022/11/08 09:53:39;;;;;;;5.80;2.42;;;20.00;99.90;;;;;;5071200;28;20368;-50
2022/11/08 09:56:28;;;;;;;5.90;2.22;;;20.00;99.90;;;;;;5072236;28;20403;-50
2022/11/08 09:59:04;;;;;;;6.50;2.00;;;20.00;99.90;;;;;;5072063;28;20380;-50
2022/11/08 10:01:35;;;;;;;7.18;2.00;;;19.30;99.90;;;;;;5070988;28;20942;-51
2022/11/08 10:04:19;;;;;;;6.35;1.77;;;17.90;99.90;;;;;;5053664;28;20400;-52
2022/11/08 10:06:54;;;;;;;5.60;1.60;;;17.10;99.90;;;;;;5071833;28;20376;-54
2022/11/08 10:09:32;;;;;;;5.75;1.80;;;16.70;99.90;;;;;;5071093;28;20902;-52
2022/11/08 10:12:48;;;;;;;6.30;1.70;;;16.20;99.90;;;;;;5071781;28;20719;-51
2022/11/08 10:15:16;;;;;;;6.65;1.75;;;16.00;99.90;;;;;;4989904;28;20395;-51
2022/11/08 10:18:02;;;;;;;6.30;1.60;;;15.90;99.90;;;;;;5039395;28;20394;-51
2022/11/08 10:20:46;;;;;;;7.10;1.87;;;16.00;99.90;;;;;;5050544;28;20416;-52
2022/11/08 10:23:42;;;;;;;7.90;1.73;;;16.20;99.90;;;;;;5051476;28;20404;-52
2022/11/08 10:26:18;;;;;;;5.50;1.50;;;16.20;99.90;;;;;;5050969;28;20807;-51
2022/11/08 10:28:49;;;;;;;7.90;2.00;;;16.50;99.90;;;;;;5051266;28;20397;-51
2022/11/08 10:31:19;;;;;;;5.70;1.77;;;16.60;99.90;;;;;;5033551;28;20401;-51
2022/11/08 10:33:55;;;;;;;6.30;1.73;;;16.80;99.90;;;;;;5051406;28;20413;-51
2022/11/08 10:36:30;;;;;;;5.93;1.42;;;16.80;99.90;;;;;;5050669;28;20381;-52
2022/11/08 10:39:11;;;;;;;5.60;1.50;;;17.30;99.90;;;;;;5050880;28;20390;-50
2022/11/08 10:41:47;;;;;;;6.95;1.90;;;18.40;99.90;;;;;;5050069;28;20401;-51
2022/11/08 10:44:14;;;;;;;8.57;1.60;;;19.40;99.90;;;;;;5050954;28;20505;-50
2022/11/08 10:46:45;;;;;;;6.60;1.70;;;19.70;99.90;;;;;;5050072;28;20437;-50
2022/11/08 10:49:10;;;;;;;7.28;1.58;;;19.90;99.90;;;;;;5050837;28;20476;-49
2022/11/08 10:51:36;;;;;;;6.90;1.50;;;19.60;99.90;;;;;;5049953;28;20472;-50
2022/11/08 10:54:02;;;;;;;9.30;2.20;;;19.20;99.90;;;;;;5050595;28;20739;-50
2022/11/08 10:56:27;;;;;;;6.63;2.07;;;18.80;99.90;;;;;;5049834;28;20381;-50
2022/11/08 10:58:53;;;;;;;6.93;1.70;;;18.60;99.90;;;;;;5050645;28;20936;-50
2022/11/08 11:01:24;;;;;;;5.97;1.52;;;18.20;99.90;;;;;;5049856;28;20485;-55
2022/11/08 11:03:51;;;;;;;7.20;1.90;;;18.00;99.90;;;;;;5050528;28;20393;-50
2022/11/08 11:06:29;;;;;;;7.10;1.60;;;17.90;99.90;;;;;;5050101;28;20385;-55
2022/11/08 11:09:01;;;;;;;7.67;1.63;;;17.80;99.90;;;;;;5050290;28;20412;-50
2022/11/08 11:11:29;;;;;;;6.43;1.58;;;17.90;99.90;;;;;;5049567;28;20393;-49
2022/11/08 11:14:15;;;;;;;6.45;1.58;;;17.90;99.90;;;;;;5059220;28;20398;-50
2022/11/08 11:16:55;;;;;;;5.88;1.90;;;17.90;99.90;;;;;;5069717;28;20388;-49
2022/11/08 11:19:22;;;;;;;6.85;1.70;;;17.70;99.90;;;;;;5069536;28;20380;-54
2022/11/08 11:21:54;;;;;;;5.95;1.80;;;18.00;99.90;;;;;;5070151;28;20403;-49
2022/11/08 11:24:21;;;;;;;6.80;1.65;;;18.00;99.90;;;;;;5069484;28;20531;-54
2022/11/08 11:26:59;;;;;;;6.50;1.60;;;17.90;99.90;;;;;;5069965;28;20449;-50
2022/11/08 11:29:30;;;;;;;6.00;1.67;;;17.80;99.90;;;;;;5069447;28;20376;-50
2022/11/08 11:31:57;;;;;;;8.18;1.55;;;17.80;99.90;;;;;;5069811;28;20391;-50
2022/11/08 11:34:38;;;;;;;6.63;1.55;;;18.10;99.90;;;;;;5069255;28;20865;-50
2022/11/08 11:37:16;;;;;;;7.40;1.60;;;18.40;99.90;;;;;;5070020;28;20376;-50
2022/11/08 11:40:06;;;;;;;5.60;1.20;;;18.50;99.90;;;;;;5069088;28;20441;-50
2022/11/08 11:43:01;;;;;;;5.50;1.60;;;18.90;99.90;;;;;;5069060;28;20487;-50
2022/11/08 11:45:26;;;;;;;8.25;1.85;;;19.10;99.90;;;;;;5033041;28;20392;-50
2022/11/08 11:47:55;;;;;;;5.78;1.55;;;19.20;99.90;;;;;;5069962;28;20379;-50
2022/11/08 11:50:26;;;;;;;5.90;1.90;;;19.20;99.90;;;;;;5069310;28;20430;-50
2022/11/08 11:52:53;;;;;;;7.50;2.33;;;19.30;99.90;;;;;;5069754;28;20388;-49
2022/11/08 11:55:33;;;;;;;6.20;1.97;;;19.50;99.90;;;;;;5069133;28;20410;-55
2022/11/08 11:58:21;;;;;;;7.60;2.08;;;19.80;99.90;;;;;;5069789;28;20376;-50
2022/11/08 12:00:58;;;;;;;6.68;1.92;;;19.90;99.90;;;;;;5069578;28;20410;-52
2022/11/08 12:03:29;;;;;;;6.53;2.20;;;20.00;99.90;;;;;;5068422;28;20829;-52
2022/11/08 12:06:20;;;;;;;9.15;2.20;;;20.20;99.90;;;;;;5069748;28;20390;-50
2022/11/08 12:08:57;;;;;;;6.27;2.10;;;20.30;99.90;;;;;;5069573;28;20710;-51
2022/11/08 12:11:32;;;;;;;7.70;2.75;;;20.30;99.90;;;;;;5068596;28;20776;-50
2022/11/08 12:14:11;;;;;;;8.20;2.50;;;20.10;99.90;;;;;;5069489;28;20380;-50
2022/11/08 12:16:51;;;;;;;7.55;2.17;;;20.00;99.90;;;;;;5068853;28;20482;-49
2022/11/08 12:19:29;;;;;;;7.13;2.20;;;20.00;99.90;;;;;;5069158;28;20909;-54
2022/11/08 12:22:01;;;;;;;8.18;2.70;;;19.90;99.90;;;;;;5069425;28;20404;-49
2022/11/08 12:24:26;;;;;;;6.30;2.00;;;19.80;99.90;;;;;;5068987;28;20395;-49
2022/11/08 12:27:04;;;;;;;7.35;2.00;;;19.70;99.90;;;;;;5069205;28;20387;-49
2022/11/08 12:29:50;;;;;;;6.70;2.30;;;19.70;99.90;;;;;;5068834;28;20376;-50
2022/11/08 12:32:25;;;;;;;7.00;2.20;;;19.70;99.90;;;;;;5069078;28;20400;-50
2022/11/08 12:35:05;;;;;;;7.20;1.80;;;19.90;99.90;;;;;;5069379;28;20380;-50
2022/11/08 12:37:50;;;;;;;7.28;2.20;;;20.00;99.90;;;;;;5068477;28;20384;-50
2022/11/08 12:40:34;;;;;;;6.17;1.77;;;20.20;99.90;;;;;;5068960;28;20379;-51
2022/11/08 12:43:18;;;;;;;6.35;1.83;;;20.20;99.90;;;;;;5069339;28;20391;-49
2022/11/08 12:45:56;;;;;;;6.10;1.40;;;19.80;99.90;;;;;;5068621;28;20384;-50
2022/11/08 12:49:06;;;;;;;5.80;1.30;;;19.70;99.90;;;;;;5069129;28;20399;-50
2022/11/08 12:51:53;;;;;;;6.80;1.30;;;19.60;99.90;;;;;;5072305;28;20417;-50
2022/11/08 12:54:41;;;;;;;5.70;1.40;;;19.50;99.90;;;;;;5072540;28;20376;-55
2022/11/08 12:57:13;;;;;;;6.60;1.40;;;19.60;99.90;;;;;;5072930;28;20383;-49
2022/11/08 12:59:44;;;;;;;5.03;1.33;;;19.70;99.90;;;;;;5071792;28;21019;-49
2022/11/08 13:02:24;;;;;;;5.80;1.40;;;19.70;99.90;;;;;;5073018;28;20463;-49
2022/11/08 13:05:02;;;;;;;5.30;1.40;;;19.90;99.90;;;;;;5073167;28;20384;-50
2022/11/08 13:07:51;;;;;;;5.57;1.30;;;19.90;99.90;;;;;;5071907;28;20402;-50
2022/11/08 13:10:46;;;;;;;6.20;1.50;;;19.90;99.90;;;;;;5072573;28;20384;-50
2022/11/08 13:13:11;;;;;;;6.50;1.30;;;19.80;99.90;;;;;;5042920;28;20478;-50
2022/11/08 13:16:11;;;;;;;5.90;1.60;;;19.80;99.90;;;;;;5072053;28;21119;-49
2022/11/08 13:19:00;;;;;;;6.20;1.55;;;19.60;99.90;;;;;;5072043;28;20407;-50
2022/11/08 13:21:36;;;;;;;5.00;1.42;;;19.60;99.90;;;;;;5071631;28;20408;-49
2022/11/08 13:24:05;;;;;;;8.00;1.40;;;19.70;99.90;;;;;;5072628;28;20496;-49